This is the latest recevied weather packets stored in our database for station/object KS5S. If no packets are shown the sender has not sent any weather packets the latest 1 day(s).
| Time | Temp. | Humidity | Pressure | Rain* | Wind** | Luminosity | Snow |
|---|---|---|---|---|---|---|---|
| 1778023967 | 30° C | 73% | 1002 hPa | 0 mm | 1.79 m/s, 171° | 139 W/m² | - |
| 1778023665 | 30° C | 72% | 1002.2 hPa | 0 mm | 2.24 m/s, 180° | 142 W/m² | - |
| 1778023362 | 30° C | 72% | 1001.9 hPa | 0 mm | 2.24 m/s, 163° | 167 W/m² | - |
| 1778023058 | 30.56° C | 71% | 1001.9 hPa | 0 mm | 1.34 m/s, 200° | 161 W/m² | - |
| 1778022757 | 30.56° C | 72% | 1002 hPa | 0 mm | 4.47 m/s, 176° | 249 W/m² | - |
| 1778022455 | 30.56° C | 71% | 1002 hPa | 0 mm | 3.13 m/s, 166° | 303 W/m² | - |
| 1778022151 | 31.11° C | 70% | 1001.7 hPa | 0 mm | 4.02 m/s, 152° | 232 W/m² | - |
| 1778021848 | 31.67° C | 69% | 1001.9 hPa | 0 mm | 0.89 m/s, 151° | 414 W/m² | - |
| 1778021545 | 31.67° C | 63% | 1001.9 hPa | 0 mm | 1.34 m/s, 176° | 424 W/m² | - |
| 1778021240 | 31.67° C | 62% | 1001.9 hPa | 0 mm | 1.79 m/s, 166° | 220 W/m² | - |
| 1778020938 | 32.78° C | 59% | 1001.8 hPa | 0 mm | 2.24 m/s, 169° | 334 W/m² | - |
| 1778020636 | 32.22° C | 59% | 1001.7 hPa | 0 mm | 0.89 m/s, 167° | 321 W/m² | - |
| 1778020332 | 32.22° C | 56% | 1001.7 hPa | 0 mm | 2.24 m/s, 199° | 317 W/m² | - |
| 1778020028 | 32.22° C | 56% | 1001.7 hPa | 0 mm | 2.24 m/s, 217° | 237 W/m² | - |
| 1778019723 | 32.78° C | 58% | 1001.5 hPa | 0 mm | 1.79 m/s, 213° | 464 W/m² | - |
| 1778019422 | 32.78° C | 59% | 1001.6 hPa | 0 mm | 0.89 m/s, 183° | 338 W/m² | - |
| 1778019118 | 32.22° C | 58% | 1001.6 hPa | 0 mm | 1.79 m/s, 181° | 452 W/m² | - |
| 1778018815 | 32.22° C | 59% | 1001.8 hPa | 0 mm | 0.89 m/s, 172° | 522 W/m² | - |
| 1778018513 | 31.67° C | 58% | 1001.7 hPa | 0 mm | 2.24 m/s, 183° | 343 W/m² | - |
| 1778018210 | 32.78° C | 58% | 1001.7 hPa | 0 mm | 0.89 m/s, 178° | 286 W/m² | - |
| 1778017908 | 33.33° C | 58% | 1001.7 hPa | 0 mm | 1.79 m/s, 184° | 597 W/m² | - |
| 1778017606 | 32.78° C | 57% | 1001.6 hPa | 0 mm | 2.68 m/s, 169° | 656 W/m² | - |
| 1778017303 | 32.78° C | 58% | 1001.7 hPa | 0 mm | 0 m/s | 527 W/m² | - |
| 1778017000 | 33.33° C | 55% | 1001.9 hPa | 0 mm | 1.79 m/s, 208° | 526 W/m² | - |
| 1778016697 | 33.89° C | 56% | 1001.5 hPa | 0 mm | 0 m/s | 615 W/m² | - |
* Rain latest hour (hover to see other rain measurements)
** Current wind speed in m/s (hover to see current wind gust speed)